createdAt,value
2019-05-19T00:01:28.971Z,11.13
2019-05-19T00:03:59.854Z,8.27
2019-05-19T00:06:31.403Z,8.30
2019-05-19T00:09:02.686Z,9.93
2019-05-19T00:11:35.322Z,8.63
2019-05-19T00:14:07.026Z,8.47
2019-05-19T00:16:38.618Z,9.37
2019-05-19T00:19:09.563Z,11.20
2019-05-19T00:21:40.514Z,10.23
2019-05-19T00:24:12.022Z,10.70
2019-05-19T00:26:43.018Z,9.33
2019-05-19T00:29:14.107Z,11.07
2019-05-19T00:31:45.344Z,11.63
2019-05-19T00:34:16.627Z,10.40
2019-05-19T00:36:47.659Z,10.03
2019-05-19T00:39:18.887Z,10.73
2019-05-19T00:41:50.218Z,9.50
2019-05-19T00:44:21.587Z,11.20
2019-05-19T00:46:52.645Z,10.53
2019-05-19T00:49:23.652Z,10.20
2019-05-19T00:51:55.407Z,10.10
2019-05-19T00:54:27.235Z,9.70
2019-05-19T00:56:59.275Z,10.30
2019-05-19T00:59:30.546Z,11.37
2019-05-19T01:02:01.681Z,9.77
2019-05-19T01:04:32.639Z,10.17
2019-05-19T01:07:03.875Z,11.13
2019-05-19T01:09:34.951Z,9.30
2019-05-19T01:12:05.984Z,10.67
2019-05-19T01:14:36.991Z,9.83
2019-05-19T01:17:08.971Z,9.33
2019-05-19T01:19:40.503Z,9.03
2019-05-19T01:22:11.891Z,10.03
2019-05-19T01:24:43.259Z,9.10
2019-05-19T01:27:14.167Z,8.97
2019-05-19T01:29:45.527Z,9.93
2019-05-19T01:32:16.926Z,10.00
2019-05-19T01:34:47.946Z,8.07
2019-05-19T01:37:19.781Z,10.40
2019-05-19T01:39:50.911Z,10.27
2019-05-19T01:42:22.328Z,11.20
2019-05-19T01:44:53.415Z,10.20
2019-05-19T01:47:24.654Z,9.30
2019-05-19T01:50:16.176Z,10.63
2019-05-19T01:52:28.591Z,10.53
2019-05-19T01:54:59.619Z,10.33
2019-05-19T01:57:30.731Z,10.80
2019-05-19T02:00:01.964Z,9.23
2019-05-19T02:02:33.591Z,10.20
2019-05-19T02:05:04.670Z,10.43
2019-05-19T02:07:35.794Z,11.20
2019-05-19T02:10:07.079Z,10.80
2019-05-19T02:12:38.364Z,9.70
2019-05-19T02:15:09.871Z,10.30
2019-05-19T02:17:41.095Z,10.87
2019-05-19T02:20:12.763Z,11.23
2019-05-19T02:22:43.975Z,10.20
2019-05-19T02:25:15.546Z,10.87
2019-05-19T02:27:46.566Z,10.00
2019-05-19T02:30:18.087Z,9.63
2019-05-19T02:32:49.398Z,10.53
2019-05-19T02:35:20.656Z,10.93
2019-05-19T02:37:51.687Z,11.33
2019-05-19T02:40:23.177Z,12.00
2019-05-19T02:42:56.547Z,10.37
2019-05-19T02:45:29.603Z,10.50
2019-05-19T02:48:02.169Z,12.00
2019-05-19T02:50:50.908Z,10.77
2019-05-19T02:53:09.562Z,10.30
2019-05-19T02:55:41.107Z,10.83
2019-05-19T02:58:13.625Z,10.87
2019-05-19T03:00:44.654Z,11.63
2019-05-19T03:03:16.004Z,10.47
2019-05-19T03:05:46.727Z,9.70
2019-05-19T03:08:17.552Z,10.60
2019-05-19T03:10:48.475Z,9.87
2019-05-19T03:13:19.747Z,9.47
2019-05-19T03:15:50.779Z,10.80
2019-05-19T03:18:21.823Z,9.97
2019-05-19T03:21:09.741Z,11.83
2019-05-19T03:23:26.247Z,10.50
2019-05-19T03:25:57.167Z,11.30
2019-05-19T03:28:28.220Z,10.37
2019-05-19T03:31:17.132Z,10.30
2019-05-19T03:33:49.420Z,10.43
2019-05-19T03:36:20.586Z,8.97
2019-05-19T03:38:51.524Z,9.40
2019-05-19T03:41:22.595Z,8.80
2019-05-19T03:43:53.660Z,7.63
2019-05-19T03:46:24.736Z,9.70
2019-05-19T03:48:55.714Z,10.17
2019-05-19T03:51:31.367Z,8.80
2019-05-19T03:54:00.494Z,8.90
2019-05-19T03:56:31.682Z,9.47
2019-05-19T03:59:02.869Z,8.03
2019-05-19T04:01:34.544Z,9.00
2019-05-19T04:04:06.023Z,7.77
2019-05-19T04:06:37.449Z,9.03
2019-05-19T04:09:08.845Z,10.40
2019-05-19T04:11:39.991Z,9.53
2019-05-19T04:14:11.097Z,8.07
2019-05-19T04:16:42.115Z,8.93
2019-05-19T04:19:13.072Z,7.50
2019-05-19T04:21:48.637Z,8.30
2019-05-19T04:24:17.099Z,8.87
2019-05-19T04:26:48.251Z,8.17
2019-05-19T04:29:19.427Z,8.67
2019-05-19T04:31:51.119Z,8.80
2019-05-19T04:34:23.103Z,9.87
2019-05-19T04:36:55.435Z,9.27
2019-05-19T04:39:26.937Z,9.27
2019-05-19T04:41:58.102Z,8.90
2019-05-19T04:44:29.400Z,8.20
2019-05-19T04:47:00.661Z,7.73
2019-05-19T04:49:32.089Z,8.30
2019-05-19T04:52:07.029Z,7.37
2019-05-19T04:54:36.234Z,8.20
2019-05-19T04:57:07.368Z,7.97
2019-05-19T04:59:38.523Z,7.83
2019-05-19T05:02:09.616Z,7.60
2019-05-19T05:04:40.628Z,7.50
2019-05-19T05:07:11.567Z,7.07
2019-05-19T05:09:43.447Z,8.23
2019-05-19T05:12:14.665Z,7.43
2019-05-19T05:14:46.190Z,8.03
2019-05-19T05:20:07.403Z,7.20
2019-05-19T05:22:38.946Z,7.00
2019-05-19T05:25:10.327Z,6.37
2019-05-19T05:27:41.564Z,6.30
2019-05-19T05:30:14.711Z,6.03
2019-05-19T05:32:46.447Z,6.43
2019-05-19T05:35:17.574Z,6.90
2019-05-19T05:37:48.763Z,6.40
2019-05-19T05:40:21.730Z,5.80
2019-05-19T05:42:54.195Z,6.63
2019-05-19T05:45:25.618Z,6.70
2019-05-19T05:47:56.779Z,6.40
2019-05-19T05:50:28.017Z,6.17
2019-05-19T05:52:58.963Z,6.50
2019-05-19T05:55:30.039Z,6.90
2019-05-19T05:58:01.286Z,7.10
2019-05-19T06:00:32.376Z,6.87
2019-05-19T06:03:03.619Z,6.40
2019-05-19T06:05:34.631Z,6.30
2019-05-19T06:08:05.719Z,6.70
2019-05-19T06:10:36.771Z,6.43
2019-05-19T06:13:08.466Z,6.73
2019-05-19T06:15:39.527Z,6.50
2019-05-19T06:18:10.654Z,6.50
2019-05-19T06:20:41.871Z,6.47
2019-05-19T06:23:12.923Z,6.30
2019-05-19T06:25:44.075Z,6.57
2019-05-19T06:28:15.158Z,6.67
2019-05-19T06:30:46.371Z,7.33
2019-05-19T06:33:17.479Z,7.10
2019-05-19T06:35:48.464Z,7.07
2019-05-19T06:38:20.523Z,7.47
2019-05-19T06:40:51.568Z,7.37
2019-05-19T06:43:22.709Z,6.93
2019-05-19T06:45:54.246Z,8.13
2019-05-19T06:48:25.274Z,7.60
2019-05-19T06:50:56.613Z,7.13
2019-05-19T06:53:28.161Z,7.10
2019-05-19T06:56:00.055Z,7.30
2019-05-19T06:58:31.355Z,7.43
2019-05-19T07:01:02.646Z,8.00
2019-05-19T07:03:33.878Z,7.60
2019-05-19T07:06:05.211Z,8.07
2019-05-19T07:08:36.404Z,7.13
2019-05-19T07:11:08.699Z,7.83
2019-05-19T07:13:40.239Z,7.10
2019-05-19T07:16:11.288Z,6.87
2019-05-19T07:18:42.487Z,7.30
2019-05-19T07:21:13.951Z,7.13
2019-05-19T07:23:45.399Z,6.87
2019-05-19T07:26:19.943Z,6.70
2019-05-19T07:28:51.071Z,7.20
2019-05-19T07:31:23.057Z,7.33
2019-05-19T07:33:54.088Z,6.93
2019-05-19T07:36:25.826Z,7.40
2019-05-19T07:38:56.974Z,6.60
2019-05-19T07:41:28.638Z,5.90
2019-05-19T07:43:59.887Z,5.37
2019-05-19T07:46:30.905Z,6.33
2019-05-19T07:49:02.454Z,5.70
2019-05-19T07:51:33.653Z,5.77
2019-05-19T07:54:04.990Z,5.90
2019-05-19T07:56:35.741Z,6.27
2019-05-19T07:59:08.025Z,6.17
2019-05-19T08:01:39.274Z,5.90
2019-05-19T08:04:10.167Z,5.80
2019-05-19T08:06:41.395Z,6.03
2019-05-19T08:09:12.583Z,5.93
2019-05-19T08:11:43.742Z,5.43
2019-05-19T08:14:14.807Z,4.93
2019-05-19T08:16:45.860Z,10.33
2019-05-19T08:19:17.499Z,10.27
2019-05-19T08:21:48.954Z,7.67
2019-05-19T08:24:23.075Z,6.77
2019-05-19T08:26:53.972Z,6.93
2019-05-19T08:29:25.427Z,7.00
2019-05-19T08:31:56.421Z,7.60
2019-05-19T08:34:27.488Z,7.20
2019-05-19T08:37:01.067Z,7.37
2019-05-19T08:39:32.332Z,8.13
2019-05-19T08:42:04.702Z,8.47
2019-05-19T08:44:35.767Z,8.17
2019-05-19T08:47:06.963Z,8.13
2019-05-19T08:49:38.127Z,7.70
2019-05-19T08:52:09.487Z,8.33
2019-05-19T08:54:40.499Z,7.70
2019-05-19T08:57:11.691Z,9.77
2019-05-19T08:59:42.607Z,9.33
2019-05-19T09:02:13.943Z,9.23
2019-05-19T09:04:45.159Z,9.07
2019-05-19T09:07:16.204Z,7.80
2019-05-19T09:09:47.265Z,9.50
2019-05-19T09:12:23.256Z,9.50
2019-05-19T09:14:55.199Z,9.10
2019-05-19T09:17:26.202Z,7.23
2019-05-19T09:19:57.104Z,6.60
2019-05-19T09:22:28.367Z,6.77
2019-05-19T09:24:59.744Z,7.50
2019-05-19T09:27:30.804Z,7.33
2019-05-19T09:30:02.760Z,7.80
2019-05-19T09:32:45.959Z,7.30
2019-05-19T09:35:17.122Z,7.43
2019-05-19T09:37:48.175Z,8.10
2019-05-19T09:40:19.905Z,8.10
2019-05-19T09:42:50.976Z,7.50
2019-05-19T09:45:22.427Z,8.00
2019-05-19T09:47:53.550Z,8.43
2019-05-19T09:50:24.840Z,8.53
2019-05-19T09:52:55.907Z,7.00
2019-05-19T09:55:27.466Z,7.23
2019-05-19T09:57:58.752Z,7.73
2019-05-19T10:00:30.307Z,7.37
2019-05-19T10:03:01.491Z,7.57
2019-05-19T10:05:32.530Z,7.23
2019-05-19T10:08:04.199Z,7.23
2019-05-19T10:11:05.673Z,7.63
2019-05-19T10:13:37.882Z,7.20
2019-05-19T10:16:09.023Z,7.20
2019-05-19T10:18:40.512Z,7.33
2019-05-19T10:21:11.651Z,7.20
2019-05-19T10:23:42.814Z,7.20
2019-05-19T10:26:14.482Z,8.07
2019-05-19T10:28:45.523Z,7.80
2019-05-19T10:31:16.779Z,7.63
2019-05-19T10:33:48.356Z,7.90
2019-05-19T10:36:19.360Z,8.40
2019-05-19T10:38:50.383Z,7.13
2019-05-19T10:41:21.587Z,7.20
2019-05-19T10:44:00.846Z,7.33
2019-05-19T10:46:32.335Z,7.53
2019-05-19T10:49:03.591Z,7.27
2019-05-19T10:51:34.872Z,7.80
2019-05-19T10:54:06.083Z,7.87
2019-05-19T10:56:37.715Z,6.70
2019-05-19T10:59:08.903Z,8.27
2019-05-19T11:01:40.133Z,8.70
2019-05-19T11:04:11.184Z,7.53
2019-05-19T11:06:42.647Z,8.00
2019-05-19T11:09:13.640Z,7.60
2019-05-19T11:11:44.787Z,7.07
2019-05-19T11:14:16.048Z,7.07
2019-05-19T11:16:47.503Z,7.57
2019-05-19T11:19:18.739Z,7.30
2019-05-19T11:21:50.131Z,8.20
2019-05-19T11:24:21.825Z,6.60
2019-05-19T11:26:53.762Z,6.87
2019-05-19T11:29:25.502Z,6.07
2019-05-19T11:31:56.980Z,6.53
2019-05-19T11:34:28.659Z,6.40
2019-05-19T11:37:00.015Z,6.27
2019-05-19T11:39:32.391Z,6.00
2019-05-19T11:42:03.603Z,6.33
2019-05-19T11:44:36.559Z,5.93
2019-05-19T11:47:07.935Z,6.20
2019-05-19T11:49:39.507Z,6.60
2019-05-19T11:52:11.136Z,6.40
2019-05-19T11:54:42.264Z,7.30
2019-05-19T11:57:13.571Z,6.67
2019-05-19T11:59:44.678Z,7.03
2019-05-19T12:02:16.216Z,8.20
2019-05-19T12:04:47.423Z,7.90
2019-05-19T12:07:18.615Z,7.87
2019-05-19T12:09:50.143Z,8.10
2019-05-19T12:12:21.268Z,8.40
2019-05-19T12:14:52.436Z,9.27
2019-05-19T12:17:24.163Z,7.77
2019-05-19T12:19:55.971Z,7.17
2019-05-19T12:22:27.312Z,6.90
2019-05-19T12:24:58.203Z,6.73
2019-05-19T12:27:29.547Z,6.53
2019-05-19T12:30:00.708Z,6.07
2019-05-19T12:32:32.591Z,6.33
2019-05-19T12:35:04.755Z,6.33
2019-05-19T12:37:35.991Z,6.27
2019-05-19T12:40:07.899Z,6.03
2019-05-19T12:42:39.266Z,6.27
2019-05-19T12:45:11.440Z,6.30
2019-05-19T12:47:42.692Z,5.80
2019-05-19T12:50:14.971Z,4.83
2019-05-19T12:52:46.623Z,7.62
2019-05-19T12:55:17.830Z,6.10
2019-05-19T12:57:49.027Z,6.30
2019-05-19T13:00:21.184Z,6.17
2019-05-19T13:02:52.279Z,4.83
2019-05-19T13:05:23.887Z,5.60
2019-05-19T13:07:55.143Z,5.70
2019-05-19T13:10:26.804Z,5.33
2019-05-19T13:12:58.597Z,4.77
2019-05-19T13:15:29.928Z,5.23
2019-05-19T13:18:01.003Z,5.37
2019-05-19T13:20:32.323Z,5.27
2019-05-19T13:23:03.431Z,5.30
2019-05-19T13:25:34.827Z,5.07
2019-05-19T13:28:05.739Z,5.30
2019-05-19T13:30:36.585Z,5.17
2019-05-19T13:33:07.378Z,5.20
2019-05-19T13:35:39.151Z,5.50
2019-05-19T13:38:10.351Z,4.77
2019-05-19T13:40:41.499Z,5.10
2019-05-19T13:43:12.447Z,5.33
2019-05-19T13:45:44.028Z,5.10
2019-05-19T13:48:14.831Z,5.13
2019-05-19T13:50:45.707Z,5.33
2019-05-19T13:53:16.751Z,5.77
2019-05-19T13:55:48.375Z,5.80
2019-05-19T13:58:19.171Z,5.57
2019-05-19T14:00:50.749Z,5.87
2019-05-19T14:03:21.775Z,5.73
2019-05-19T14:05:52.743Z,5.60
2019-05-19T14:08:23.619Z,5.63
2019-05-19T14:10:54.919Z,6.10
2019-05-19T14:13:26.107Z,6.77
2019-05-19T14:15:57.347Z,5.80
2019-05-19T14:18:28.894Z,6.07
2019-05-19T14:21:00.083Z,6.33
2019-05-19T14:23:31.507Z,6.33
2019-05-19T14:26:02.935Z,5.83
2019-05-19T14:28:34.103Z,6.20
2019-05-19T14:31:05.355Z,6.30
2019-05-19T14:33:36.415Z,6.80
2019-05-19T14:36:07.235Z,5.97
2019-05-19T14:38:40.123Z,6.43
2019-05-19T14:41:12.355Z,6.60
2019-05-19T14:43:43.455Z,6.50
2019-05-19T14:46:14.895Z,5.97
2019-05-19T14:48:46.087Z,5.80
2019-05-19T14:51:17.087Z,5.23
2019-05-19T14:53:48.790Z,5.70
2019-05-19T14:56:20.165Z,5.03
2019-05-19T14:58:51.126Z,5.37
2019-05-19T15:01:22.527Z,4.90
2019-05-19T15:03:53.833Z,4.63
2019-05-19T15:06:24.891Z,4.60
2019-05-19T15:08:55.974Z,4.10
2019-05-19T15:11:27.015Z,4.60
2019-05-19T15:13:58.589Z,4.80
2019-05-19T15:16:29.353Z,5.10
2019-05-19T15:19:00.963Z,4.67
2019-05-19T15:21:32.551Z,4.73
2019-05-19T15:24:04.411Z,4.30
2019-05-19T15:26:35.418Z,4.60
2019-05-19T15:29:06.503Z,4.73
2019-05-19T15:31:37.403Z,4.77
2019-05-19T15:34:08.139Z,4.90
2019-05-19T15:36:39.331Z,4.30
2019-05-19T15:39:14.435Z,4.30
2019-05-19T15:41:44.121Z,4.20
2019-05-19T15:44:16.839Z,4.57
2019-05-19T15:46:47.759Z,4.13
2019-05-19T15:49:19.015Z,4.70
2019-05-19T15:52:01.864Z,4.37
2019-05-19T15:54:23.299Z,4.37
2019-05-19T15:56:54.571Z,4.57
2019-05-19T15:59:25.679Z,4.37
2019-05-19T16:01:56.819Z,4.40
2019-05-19T16:04:27.812Z,4.50
2019-05-19T16:06:59.319Z,4.17
2019-05-19T16:09:30.903Z,4.47
2019-05-19T16:12:02.265Z,4.33
2019-05-19T16:14:34.498Z,4.27
2019-05-19T16:17:05.734Z,4.20
2019-05-19T16:19:36.710Z,4.30
2019-05-19T16:22:08.615Z,4.23
2019-05-19T16:24:39.568Z,4.63
2019-05-19T16:27:12.790Z,4.20
2019-05-19T16:29:43.470Z,4.77
2019-05-19T16:32:14.545Z,4.63
2019-05-19T16:34:45.683Z,4.20
2019-05-19T16:37:16.862Z,4.13
2019-05-19T16:39:48.463Z,4.67
2019-05-19T16:42:20.210Z,4.70
2019-05-19T16:44:51.443Z,4.90
2019-05-19T16:47:22.862Z,5.73
2019-05-19T16:49:54.039Z,5.10
2019-05-19T16:52:25.206Z,4.97
2019-05-19T16:55:13.422Z,6.33
2019-05-19T16:57:44.416Z,5.30
2019-05-19T17:00:15.724Z,5.23
2019-05-19T17:02:47.285Z,4.20
2019-05-19T17:05:18.647Z,4.80
2019-05-19T17:07:50.314Z,5.37
2019-05-19T17:10:22.071Z,4.87
2019-05-19T17:12:53.563Z,4.43
2019-05-19T17:15:29.200Z,4.87
2019-05-19T17:18:01.651Z,4.40
2019-05-19T17:20:33.079Z,4.47
2019-05-19T17:23:04.338Z,4.60
2019-05-19T17:25:35.546Z,4.70
2019-05-19T17:28:06.651Z,4.10
2019-05-19T17:30:37.704Z,4.27
2019-05-19T17:33:09.010Z,8.53
2019-05-19T17:35:41.240Z,12.33
2019-05-19T17:38:12.720Z,7.83
2019-05-19T17:40:43.764Z,8.57
2019-05-19T17:43:14.807Z,11.10
2019-05-19T17:45:45.934Z,7.50
2019-05-19T17:48:26.065Z,9.57
2019-05-19T17:50:50.302Z,9.67
2019-05-19T17:53:22.114Z,10.10
2019-05-19T17:55:54.863Z,8.20
2019-05-19T17:58:27.179Z,7.40
2019-05-19T18:00:58.512Z,7.33
2019-05-19T18:03:30.705Z,7.33
2019-05-19T18:06:01.989Z,6.13
2019-05-19T18:08:34.096Z,5.60
2019-05-19T18:11:05.172Z,5.73
2019-05-19T18:13:36.491Z,5.63
2019-05-19T18:16:08.183Z,6.33
2019-05-19T18:18:39.246Z,5.93
2019-05-19T18:21:10.451Z,5.40
2019-05-19T18:23:41.415Z,5.63
2019-05-19T18:26:12.215Z,5.93
2019-05-19T18:28:44.511Z,6.50
2019-05-19T18:31:16.595Z,6.20
2019-05-19T18:33:47.727Z,7.13
2019-05-19T18:36:19.164Z,6.50
2019-05-19T18:38:50.843Z,6.50
2019-05-19T18:41:22.691Z,6.07
2019-05-19T18:43:55.075Z,6.43
2019-05-19T18:46:26.815Z,5.77
2019-05-19T18:48:58.435Z,5.50
2019-05-19T18:51:29.428Z,5.77
2019-05-19T18:54:00.495Z,5.67
2019-05-19T18:56:33.151Z,4.67
2019-05-19T18:59:04.604Z,5.00
2019-05-19T19:01:35.990Z,5.07
2019-05-19T19:04:07.488Z,5.33
2019-05-19T19:06:38.699Z,5.70
2019-05-19T19:09:10.372Z,6.07
2019-05-19T19:11:41.573Z,5.73
2019-05-19T19:14:13.871Z,6.43
2019-05-19T19:16:44.975Z,6.30
2019-05-19T19:19:16.434Z,7.03
2019-05-19T19:21:49.748Z,8.17
2019-05-19T19:24:21.879Z,7.87
2019-05-19T19:26:53.292Z,7.43
2019-05-19T19:29:24.404Z,7.63
2019-05-19T19:31:55.573Z,7.20
2019-05-19T19:34:27.077Z,6.83
2019-05-19T19:36:58.535Z,7.43
2019-05-19T19:39:29.980Z,6.10
2019-05-19T19:42:01.012Z,6.40
2019-05-19T19:44:32.510Z,6.30
2019-05-19T19:47:03.944Z,7.47
2019-05-19T19:49:35.144Z,8.30
2019-05-19T19:52:06.600Z,6.57
2019-05-19T19:54:37.759Z,7.53
2019-05-19T19:57:08.895Z,5.87
2019-05-19T19:59:40.441Z,5.73
2019-05-19T20:02:11.637Z,4.70
2019-05-19T20:04:42.739Z,6.20
2019-05-19T20:07:13.780Z,5.67
2019-05-19T20:09:45.239Z,6.10
2019-05-19T20:12:16.332Z,6.23
2019-05-19T20:14:48.487Z,6.70
2019-05-19T20:17:19.776Z,6.33
2019-05-19T20:19:51.051Z,5.83
2019-05-19T20:22:21.931Z,6.63
2019-05-19T20:24:54.035Z,5.67
2019-05-19T20:27:25.191Z,5.10
2019-05-19T20:29:57.435Z,5.90
2019-05-19T20:32:29.695Z,5.33
2019-05-19T20:35:00.647Z,5.93
2019-05-19T20:37:31.735Z,4.73
2019-05-19T20:40:03.139Z,6.43
2019-05-19T20:42:34.568Z,5.63
2019-05-19T20:45:06.287Z,5.57
2019-05-19T20:47:37.963Z,5.90
2019-05-19T20:50:09.387Z,5.87
2019-05-19T20:52:40.583Z,5.43
2019-05-19T20:55:12.247Z,4.70
2019-05-19T20:57:43.425Z,5.20
2019-05-19T21:00:14.839Z,5.40
2019-05-19T21:02:45.985Z,4.67
2019-05-19T21:05:17.367Z,5.00
2019-05-19T21:07:48.631Z,5.50
2019-05-19T21:10:20.051Z,5.20
2019-05-19T21:12:51.310Z,5.50
2019-05-19T21:15:22.327Z,5.30
2019-05-19T21:17:53.163Z,5.00
2019-05-19T21:20:24.248Z,5.37
2019-05-19T21:22:55.312Z,5.90
2019-05-19T21:25:26.426Z,5.37
2019-05-19T21:27:57.855Z,5.23
2019-05-19T21:30:29.015Z,5.23
2019-05-19T21:33:00.001Z,5.57
2019-05-19T21:35:31.271Z,5.27
2019-05-19T21:38:02.226Z,5.33
2019-05-19T21:40:34.219Z,5.20
2019-05-19T21:43:05.547Z,4.50
2019-05-19T21:45:37.079Z,5.37
2019-05-19T21:48:08.103Z,5.07
2019-05-19T21:50:39.338Z,5.37
2019-05-19T21:53:10.431Z,6.30
2019-05-19T21:55:41.147Z,6.70
2019-05-19T21:58:11.891Z,6.20
2019-05-19T22:00:44.510Z,6.47
2019-05-19T22:03:16.029Z,6.50
2019-05-19T22:05:53.510Z,6.50
2019-05-19T22:08:21.621Z,6.10
2019-05-19T22:10:52.822Z,6.50
2019-05-19T22:13:24.079Z,6.90
2019-05-19T22:16:11.254Z,6.50
2019-05-19T22:18:27.946Z,7.43
2019-05-19T22:20:58.801Z,8.03
2019-05-19T22:23:29.855Z,7.40
2019-05-19T22:26:00.946Z,7.43
2019-05-19T22:28:31.966Z,7.67
2019-05-19T22:31:03.054Z,6.87
2019-05-19T22:33:34.275Z,7.13
2019-05-19T22:36:05.980Z,6.00
2019-05-19T22:38:36.963Z,6.00
2019-05-19T22:41:07.862Z,5.87
2019-05-19T22:43:38.947Z,6.20
2019-05-19T22:46:10.326Z,6.00
2019-05-19T22:48:41.703Z,6.23
2019-05-19T22:51:13.058Z,6.90
2019-05-19T22:53:44.163Z,6.47
2019-05-19T22:56:16.811Z,7.17
2019-05-19T22:58:48.059Z,7.20
2019-05-19T23:01:19.063Z,6.97
2019-05-19T23:03:50.227Z,6.13
2019-05-19T23:06:21.167Z,7.00
2019-05-19T23:08:52.022Z,7.33
2019-05-19T23:11:23.541Z,7.37
2019-05-19T23:13:55.056Z,6.87
2019-05-19T23:16:26.384Z,6.70
2019-05-19T23:18:57.650Z,5.90
2019-05-19T23:21:28.763Z,6.07
2019-05-19T23:23:59.942Z,4.97
2019-05-19T23:26:31.131Z,4.50
2019-05-19T23:29:02.265Z,4.87
2019-05-19T23:31:33.199Z,4.30
2019-05-19T23:34:05.187Z,4.47
2019-05-19T23:36:36.156Z,4.37
2019-05-19T23:39:08.114Z,4.10
2019-05-19T23:41:38.951Z,4.53
2019-05-19T23:44:10.380Z,4.60
2019-05-19T23:46:41.885Z,4.40
2019-05-19T23:49:12.827Z,4.20
2019-05-19T23:51:43.683Z,5.10
2019-05-19T23:54:14.763Z,5.07
2019-05-19T23:56:45.951Z,4.67
2019-05-19T23:59:16.990Z,6.00
